Terminal Aerodrome Forecast
Issued by NWS

Home | Current Version | Previous Version | Text Only | Print | Product List | Glossary On
Versions: 1 2 3 4 5 6 7 8 9 10 11 12 13
000
FTUS44 KEPZ 301100
TAFTCS
TAF
KTCS 301120Z 3012/3112 32004KT P6SM BKN120
     FM301700 18007KT P6SM SCT100 SCT250
     FM310600 24007KT P6SM FEW120 FEW250=

USA.gov is the U.S. government's official web portal to all federal, state and local government web resources and services.